Time;durP1;ratioP1;P1;durP2;ratioP2;P2;SDS_P1;SDS_P2;PMS_P1;PMS_P2;Temp;Humidity;BMP_temperature;BMP_pressure;BME280_temperature;BME280_humidity;BME280_pressure;Samples;Min_cycle;Max_cycle;Signal;HPM_P1;HPM_P2
2021/11/12 00:04:39;;;;;;;2.30;0.80;;;;;;;;;;4706678;22;20131;-53
2021/11/12 00:12:36;;;;;;;4.05;1.20;;;;;;;;;;5044259;28;20613;-57
2021/11/12 00:15:04;;;;;;;5.07;1.40;;;;;;;;;;5040801;28;20102;-57
2021/11/12 00:17:32;;;;;;;3.58;1.02;;;;;;;;;;5038141;28;20086;-57
2021/11/12 00:19:59;;;;;;;3.70;1.00;;;;;;;;;;5043428;28;20680;-58
2021/11/12 00:22:25;;;;;;;12.02;1.35;;;;;;;;;;5042994;28;20049;-53
2021/11/12 00:24:53;;;;;;;3.10;0.98;;;;;;;;;;5044845;28;20039;-57
2021/11/12 00:27:19;;;;;;;8.50;1.23;;;;;;;;;;5035013;28;20122;-58
2021/11/12 00:29:53;;;;;;;2.63;0.82;;;;;;;;;;5025073;28;20045;-58
2021/11/12 00:40:17;;;;;;;4.80;1.20;;;;;;;;;;5019468;28;20084;-56
2021/11/12 00:43:10;;;;;;;3.38;1.00;;;;;;;;;;5027983;28;20040;-57
2021/11/12 00:45:31;;;;;;;7.45;0.98;;;;;;;;;;5029063;28;20083;-60
2021/11/12 00:48:10;;;;;;;7.82;1.58;;;;;;;;;;5019494;28;20551;-58
2021/11/12 00:55:41;;;;;;;7.68;1.50;;;;;;;;;;5022271;28;20041;-54
2021/11/12 00:58:08;;;;;;;6.07;1.25;;;;;;;;;;5022979;28;20375;-57
2021/11/12 01:00:34;;;;;;;7.35;1.65;;;;;;;;;;4992668;28;20133;-57
2021/11/12 01:03:00;;;;;;;11.23;1.42;;;;;;;;;;5022793;28;20064;-57
2021/11/12 01:05:26;;;;;;;6.32;1.95;;;;;;;;;;5019754;28;20076;-54
2021/11/12 01:07:52;;;;;;;4.80;1.52;;;;;;;;;;5021327;28;20057;-56
2021/11/12 01:10:18;;;;;;;8.27;1.58;;;;;;;;;;5022932;28;20121;-57
2021/11/12 01:12:45;;;;;;;4.43;1.40;;;;;;;;;;5036336;28;20052;-56
2021/11/12 01:15:12;;;;;;;9.30;1.48;;;;;;;;;;5035256;28;20501;-57
2021/11/12 01:17:38;;;;;;;6.78;1.85;;;;;;;;;;5047931;28;20040;-57
2021/11/12 01:20:05;;;;;;;11.25;1.92;;;;;;;;;;5048065;28;20149;-56
2021/11/12 01:22:32;;;;;;;7.75;2.08;;;;;;;;;;5044908;28;20480;-58
2021/11/12 01:24:59;;;;;;;4.22;1.50;;;;;;;;;;5049377;28;20060;-55
2021/11/12 01:27:25;;;;;;;8.15;1.65;;;;;;;;;;5046456;28;21238;-58
2021/11/12 01:29:51;;;;;;;6.18;1.50;;;;;;;;;;5049994;28;20043;-60
2021/11/12 01:32:21;;;;;;;7.10;2.00;;;;;;;;;;5030602;28;20480;-58
2021/11/12 01:34:51;;;;;;;5.07;1.63;;;;;;;;;;5048669;28;20041;-54
2021/11/12 01:37:19;;;;;;;5.72;1.92;;;;;;;;;;5050167;28;20053;-57
2021/11/12 01:39:51;;;;;;;4.20;1.83;;;;;;;;;;5048330;28;20446;-56
2021/11/12 01:42:18;;;;;;;4.00;1.52;;;;;;;;;;5049177;28;20071;-57
2021/11/12 01:44:49;;;;;;;5.60;1.48;;;;;;;;;;5046230;28;20083;-57
2021/11/12 01:47:42;;;;;;;5.57;1.80;;;;;;;;;;5045991;28;20041;-55
2021/11/12 01:50:12;;;;;;;6.00;1.77;;;;;;;;;;5048544;28;20040;-56
2021/11/12 01:52:47;;;;;;;7.10;1.70;;;;;;;;;;5048330;28;20040;-52
2021/11/12 02:00:29;;;;;;;3.80;1.52;;;;;;;;;;5035451;28;20143;-57
2021/11/12 02:02:58;;;;;;;4.53;1.35;;;;;;;;;;5042633;28;20363;-60
2021/11/12 02:05:25;;;;;;;4.18;1.52;;;;;;;;;;5024156;28;20053;-57
2021/11/12 02:07:54;;;;;;;10.45;1.40;;;;;;;;;;5022415;28;20029;-56
2021/11/12 02:10:23;;;;;;;3.85;1.23;;;;;;;;;;5022370;28;20037;-58
2021/11/12 02:15:21;;;;;;;7.40;1.00;;;;;;;;;;5019988;28;20716;-57
2021/11/12 02:17:54;;;;;;;4.53;1.08;;;;;;;;;;5021116;28;20128;-55
2021/11/12 02:20:26;;;;;;;4.75;1.00;;;;;;;;;;5021509;28;20525;-58
2021/11/12 02:22:57;;;;;;;4.40;1.40;;;;;;;;;;5020522;28;20156;-59
2021/11/12 02:25:35;;;;;;;3.83;1.13;;;;;;;;;;5020449;28;20443;-61
2021/11/12 02:28:10;;;;;;;4.00;1.00;;;;;;;;;;5021742;28;20706;-58
2021/11/12 02:30:36;;;;;;;2.47;0.88;;;;;;;;;;5019970;28;20029;-59
2021/11/12 02:33:04;;;;;;;2.22;0.90;;;;;;;;;;5019277;28;20633;-58
2021/11/12 02:35:30;;;;;;;4.43;1.30;;;;;;;;;;5018982;28;20037;-57
2021/11/12 02:38:01;;;;;;;4.35;1.63;;;;;;;;;;5020351;28;20040;-58
2021/11/12 02:40:26;;;;;;;9.25;1.70;;;;;;;;;;5018859;28;20041;-58
2021/11/12 02:42:53;;;;;;;7.30;1.30;;;;;;;;;;5020309;28;20044;-61
2021/11/12 02:45:19;;;;;;;4.80;1.20;;;;;;;;;;5019320;28;20495;-58
2021/11/12 02:47:44;;;;;;;2.83;1.00;;;;;;;;;;5021084;28;20033;-59
2021/11/12 02:50:11;;;;;;;9.32;1.27;;;;;;;;;;5015263;28;20048;-57
2021/11/12 02:52:39;;;;;;;4.88;1.25;;;;;;;;;;5019581;28;20037;-56
2021/11/12 02:55:05;;;;;;;4.90;1.15;;;;;;;;;;5020688;28;20075;-62
2021/11/12 02:57:34;;;;;;;8.23;1.13;;;;;;;;;;5020625;28;20034;-55
2021/11/12 03:00:00;;;;;;;6.10;1.63;;;;;;;;;;5019823;28;20060;-55
2021/11/12 03:02:26;;;;;;;3.55;1.30;;;;;;;;;;5019213;28;20041;-57
2021/11/12 03:04:51;;;;;;;6.88;1.90;;;;;;;;;;5035300;28;20409;-55
2021/11/12 03:07:17;;;;;;;12.02;1.90;;;;;;;;;;5024612;28;20037;-58
2021/11/12 03:09:43;;;;;;;7.93;1.45;;;;;;;;;;5024266;28;20048;-59
2021/11/12 03:12:09;;;;;;;2.88;1.05;;;;;;;;;;5023638;28;20049;-56
2021/11/12 03:14:35;;;;;;;3.90;1.20;;;;;;;;;;5022946;28;20048;-58
2021/11/12 03:17:02;;;;;;;4.55;1.30;;;;;;;;;;5023480;28;20124;-57
2021/11/12 03:19:30;;;;;;;5.25;1.00;;;;;;;;;;5021146;28;20084;-58
2021/11/12 03:22:02;;;;;;;5.53;1.30;;;;;;;;;;5025384;28;20033;-57
2021/11/12 03:24:34;;;;;;;9.32;1.67;;;;;;;;;;5024013;28;20079;-58
2021/11/12 04:02:04;;;;;;;3.08;1.00;;;;;;;;;;5032332;28;20083;-57
2021/11/12 04:04:44;;;;;;;3.65;0.90;;;;;;;;;;5028278;28;20041;-57
2021/11/12 04:07:21;;;;;;;4.80;1.00;;;;;;;;;;5026087;28;20107;-58
2021/11/12 04:20:38;;;;;;;5.63;0.90;;;;;;;;;;5022936;28;20096;-58
2021/11/12 05:26:12;;;;;;;3.55;0.80;;;;;;;;;;5020170;28;20491;-57
2021/11/12 05:44:32;;;;;;;4.20;0.90;;;;;;;;;;5035882;28;20092;-55
2021/11/12 05:49:42;;;;;;;1.15;0.55;;;;;;;;;;5027070;28;20202;-57
2021/11/12 05:57:25;;;;;;;6.53;1.00;;;;;;;;;;5047543;28;21132;-57
2021/11/12 05:59:51;;;;;;;3.03;0.98;;;;;;;;;;5045623;28;20045;-55
2021/11/12 06:02:17;;;;;;;2.20;0.82;;;;;;;;;;5044987;28;20041;-54
2021/11/12 06:04:43;;;;;;;2.92;0.70;;;;;;;;;;5018015;28;20050;-53
2021/11/12 06:07:09;;;;;;;2.10;0.68;;;;;;;;;;5024539;28;20052;-59
2021/11/12 06:09:36;;;;;;;1.65;0.60;;;;;;;;;;5017236;28;20046;-58
2021/11/12 06:12:02;;;;;;;2.15;0.85;;;;;;;;;;5001167;28;20172;-57
2021/11/12 06:14:29;;;;;;;2.75;1.02;;;;;;;;;;4999188;28;20053;-55
2021/11/12 06:16:55;;;;;;;8.50;1.10;;;;;;;;;;5001524;28;20034;-55
2021/11/12 06:19:22;;;;;;;7.53;1.02;;;;;;;;;;5000065;28;21761;-59
2021/11/12 06:21:49;;;;;;;4.43;0.60;;;;;;;;;;5000835;28;20052;-56
2021/11/12 06:24:33;;;;;;;1.50;0.63;;;;;;;;;;5013215;28;20041;-57
2021/11/12 06:26:59;;;;;;;1.20;0.50;;;;;;;;;;5003673;28;20034;-56
2021/11/12 06:29:25;;;;;;;1.70;0.47;;;;;;;;;;4996369;28;20134;-55
2021/11/12 06:31:51;;;;;;;10.85;1.08;;;;;;;;;;4997461;28;20649;-53
2021/11/12 06:34:17;;;;;;;4.45;0.68;;;;;;;;;;4997161;28;20041;-56
2021/11/12 06:36:43;;;;;;;1.98;0.60;;;;;;;;;;5004926;28;20091;-54
2021/11/12 06:39:10;;;;;;;1.98;0.70;;;;;;;;;;5009485;28;20046;-56
2021/11/12 06:49:59;;;;;;;2.00;0.70;;;;;;;;;;5007920;28;21085;-56
2021/11/12 06:52:26;;;;;;;2.40;0.60;;;;;;;;;;5007470;28;20061;-55
2021/11/12 06:54:52;;;;;;;2.83;0.73;;;;;;;;;;5004012;28;20409;-56
2021/11/12 06:57:19;;;;;;;2.38;0.70;;;;;;;;;;4996987;28;20129;-55
2021/11/12 06:59:46;;;;;;;13.23;1.00;;;;;;;;;;5013661;28;20046;-57
2021/11/12 07:02:12;;;;;;;3.05;0.80;;;;;;;;;;5016860;28;20641;-57
2021/11/12 07:04:40;;;;;;;3.30;0.85;;;;;;;;;;5017675;28;20151;-56
2021/11/12 07:07:06;;;;;;;2.90;0.80;;;;;;;;;;5016860;28;20558;-58
2021/11/12 07:09:33;;;;;;;4.70;0.82;;;;;;;;;;5018127;28;20037;-57
2021/11/12 07:11:59;;;;;;;2.97;0.80;;;;;;;;;;5019168;28;20045;-57
2021/11/12 07:14:25;;;;;;;2.42;0.80;;;;;;;;;;5018680;28;20042;-57
2021/11/12 07:16:51;;;;;;;3.67;0.90;;;;;;;;;;5032119;28;20033;-57
2021/11/12 07:19:16;;;;;;;2.72;0.80;;;;;;;;;;5016922;28;20041;-56
2021/11/12 07:21:43;;;;;;;3.05;0.90;;;;;;;;;;5019000;28;20056;-57
2021/11/12 07:24:08;;;;;;;7.82;0.80;;;;;;;;;;5017828;28;20383;-55
2021/11/12 07:26:35;;;;;;;2.38;0.80;;;;;;;;;;5018422;28;20049;-56
2021/11/12 07:29:04;;;;;;;9.43;1.05;;;;;;;;;;5019176;28;20052;-56
2021/11/12 07:31:30;;;;;;;2.13;0.90;;;;;;;;;;5018390;28;20056;-53
2021/11/12 07:33:59;;;;;;;6.03;1.00;;;;;;;;;;5017469;28;21059;-56
2021/11/12 07:36:34;;;;;;;7.63;1.13;;;;;;;;;;5018306;28;20690;-57
2021/11/12 07:39:04;;;;;;;6.90;0.95;;;;;;;;;;5018783;28;20479;-56
2021/11/12 07:46:45;;;;;;;5.65;1.15;;;;;;;;;;5017899;28;20044;-53
2021/11/12 07:49:12;;;;;;;5.13;1.58;;;;;;;;;;5019051;28;20572;-55
2021/11/12 07:51:38;;;;;;;5.38;0.95;;;;;;;;;;5018217;28;20042;-57
2021/11/12 07:54:05;;;;;;;7.72;1.27;;;;;;;;;;5017267;28;20034;-55
2021/11/12 07:56:31;;;;;;;6.43;1.20;;;;;;;;;;5017639;28;20037;-55
2021/11/12 07:58:57;;;;;;;2.67;0.85;;;;;;;;;;5018931;28;20072;-58
2021/11/12 08:01:23;;;;;;;8.10;1.20;;;;;;;;;;5018353;28;20283;-56
2021/11/12 08:04:00;;;;;;;3.33;1.10;;;;;;;;;;5018160;28;20037;-55
2021/11/12 08:06:27;;;;;;;10.25;1.00;;;;;;;;;;5017112;28;20136;-52
2021/11/12 08:09:06;;;;;;;6.78;0.90;;;;;;;;;;5019886;28;20040;-56
2021/11/12 08:11:40;;;;;;;3.58;1.10;;;;;;;;;;5019971;28;20037;-55
2021/11/12 08:16:45;;;;;;;4.22;1.20;;;;;;;;;;5019498;28;20044;-57
2021/11/12 08:19:26;;;;;;;4.97;1.00;;;;;;;;;;5018710;28;20048;-53
2021/11/12 08:22:58;;;;;;;2.80;0.80;;;;;;;;;;5043696;28;20131;-56
2021/11/12 08:27:52;;;;;;;;;;;;;;;;;;5025299;28;20107;-55
2021/11/12 08:30:30;;;;;;;2.80;0.90;;;;;;;;;;5028062;28;19914;-57
2021/11/12 08:33:05;;;;;;;5.03;1.50;;;;;;;;;;5033388;28;20396;-57
2021/11/12 08:35:42;;;;;;;3.78;0.90;;;;;;;;;;5049528;28;20045;-57
2021/11/12 08:41:04;;;;;;;3.00;1.02;;;;;;;;;;5042177;28;20045;-55
2021/11/12 08:43:36;;;;;;;2.50;1.10;;;;;;;;;;5022014;28;20046;-57
2021/11/12 08:46:53;;;;;;;8.55;1.38;;;;;;;;;;5022091;28;20038;-52
2021/11/12 08:51:16;;;;;;;2.33;0.77;;;;;;;;;;5022901;28;20273;-56
2021/11/12 08:53:44;;;;;;;5.18;0.77;;;;;;;;;;5021611;28;20524;-57
2021/11/12 08:56:13;;;;;;;4.07;1.05;;;;;;;;;;5021814;28;20044;-56
2021/11/12 08:58:40;;;;;;;7.95;1.10;;;;;;;;;;5021465;28;20452;-56
2021/11/12 09:01:06;;;;;;;6.28;1.10;;;;;;;;;;5021003;28;20074;-56
2021/11/12 09:03:32;;;;;;;3.45;0.90;;;;;;;;;;5020793;28;20034;-57
2021/11/12 09:05:58;;;;;;;3.67;1.20;;;;;;;;;;5021730;28;20516;-55
2021/11/12 09:08:24;;;;;;;3.00;0.93;;;;;;;;;;5020968;28;20057;-56
2021/11/12 09:10:50;;;;;;;5.00;0.75;;;;;;;;;;5022301;28;20114;-57
2021/11/12 09:13:24;;;;;;;5.10;1.27;;;;;;;;;;5020669;28;20049;-55
2021/11/12 09:15:53;;;;;;;3.70;0.80;;;;;;;;;;5020163;28;20080;-56
2021/11/12 09:18:22;;;;;;;5.35;0.90;;;;;;;;;;5022066;28;20046;-56
2021/11/12 09:20:48;;;;;;;4.80;0.90;;;;;;;;;;5021549;28;20072;-56
2021/11/12 09:23:14;;;;;;;2.55;0.85;;;;;;;;;;5021885;28;20042;-55
2021/11/12 09:25:40;;;;;;;6.85;1.15;;;;;;;;;;5035196;28;20053;-54
2021/11/12 09:28:06;;;;;;;4.20;1.00;;;;;;;;;;5003915;28;21758;-55
2021/11/12 09:30:35;;;;;;;3.95;0.80;;;;;;;;;;5019756;28;20509;-53
2021/11/12 09:33:05;;;;;;;5.45;0.93;;;;;;;;;;5020265;28;20091;-55
2021/11/12 09:35:31;;;;;;;6.85;1.08;;;;;;;;;;5019608;28;20041;-57
2021/11/12 09:37:57;;;;;;;2.83;0.80;;;;;;;;;;5020910;28;20624;-56
2021/11/12 09:40:24;;;;;;;3.53;0.82;;;;;;;;;;5019771;28;20844;-56
2021/11/12 09:42:50;;;;;;;2.83;0.80;;;;;;;;;;5019150;28;20033;-55
2021/11/12 09:45:17;;;;;;;7.65;0.90;;;;;;;;;;5019402;28;20045;-56
2021/11/12 09:47:43;;;;;;;7.00;0.90;;;;;;;;;;5019760;28;20052;-55
2021/11/12 09:50:15;;;;;;;12.73;1.05;;;;;;;;;;5022466;28;20110;-55
2021/11/12 09:52:42;;;;;;;8.27;1.23;;;;;;;;;;5004639;28;20071;-56
2021/11/12 09:55:08;;;;;;;3.38;1.05;;;;;;;;;;5022692;28;20046;-54
2021/11/12 09:57:34;;;;;;;4.30;1.17;;;;;;;;;;5021725;28;20037;-56
2021/11/12 10:00:02;;;;;;;5.57;1.10;;;;;;;;;;5020692;28;20095;-56
2021/11/12 10:02:30;;;;;;;4.38;0.80;;;;;;;;;;5004859;28;20034;-58
2021/11/12 10:04:57;;;;;;;3.28;0.82;;;;;;;;;;5028016;28;21874;-55
2021/11/12 10:07:25;;;;;;;2.33;0.77;;;;;;;;;;5040127;28;20036;-57
2021/11/12 10:10:08;;;;;;;3.08;0.95;;;;;;;;;;5047436;28;20055;-55
2021/11/12 10:12:40;;;;;;;3.70;1.20;;;;;;;;;;5046693;28;20059;-58
2021/11/12 10:15:25;;;;;;;4.55;1.25;;;;;;;;;;5047211;28;21172;-57
2021/11/12 10:17:51;;;;;;;2.28;0.80;;;;;;;;;;5050457;28;20044;-55
2021/11/12 10:20:18;;;;;;;3.40;0.88;;;;;;;;;;5047688;28;20048;-58
2021/11/12 10:22:45;;;;;;;3.00;0.98;;;;;;;;;;5046852;28;20029;-57
2021/11/12 10:25:11;;;;;;;3.42;1.17;;;;;;;;;;5047718;28;20166;-58
2021/11/12 10:27:43;;;;;;;2.50;0.80;;;;;;;;;;5045331;28;20106;-60
2021/11/12 10:30:14;;;;;;;2.63;0.90;;;;;;;;;;5048041;28;20059;-58
2021/11/12 10:32:40;;;;;;;3.67;0.90;;;;;;;;;;5047025;28;20040;-58
2021/11/12 10:35:08;;;;;;;2.55;0.70;;;;;;;;;;5046008;28;20504;-57
2021/11/12 10:37:35;;;;;;;3.55;1.02;;;;;;;;;;5046396;28;20556;-58
2021/11/12 10:40:05;;;;;;;4.05;1.00;;;;;;;;;;5046804;28;20048;-57
2021/11/12 10:42:33;;;;;;;5.63;1.20;;;;;;;;;;5043899;28;20039;-57
2021/11/12 10:45:00;;;;;;;3.33;0.82;;;;;;;;;;5043651;28;20037;-58
2021/11/12 10:47:28;;;;;;;2.05;0.75;;;;;;;;;;5043617;28;20037;-56
2021/11/12 10:49:59;;;;;;;3.17;0.85;;;;;;;;;;5044360;28;20037;-58
2021/11/12 10:52:27;;;;;;;2.40;0.80;;;;;;;;;;5043942;28;20048;-57
2021/11/12 10:55:03;;;;;;;3.15;0.82;;;;;;;;;;5044463;28;20501;-57
2021/11/12 10:57:32;;;;;;;4.30;0.90;;;;;;;;;;5046566;28;20041;-56
2021/11/12 11:00:16;;;;;;;4.20;0.88;;;;;;;;;;5045928;28;20041;-57
2021/11/12 11:02:41;;;;;;;2.65;0.90;;;;;;;;;;5045732;28;20098;-57
2021/11/12 11:05:13;;;;;;;6.22;1.00;;;;;;;;;;5025317;28;20061;-58
2021/11/12 11:07:39;;;;;;;2.78;0.88;;;;;;;;;;5018193;28;20046;-57
2021/11/12 11:10:07;;;;;;;2.83;0.90;;;;;;;;;;5034337;28;21870;-58
2021/11/12 11:12:33;;;;;;;2.60;0.93;;;;;;;;;;5019193;28;20080;-55
2021/11/12 11:15:18;;;;;;;4.65;1.10;;;;;;;;;;5019334;28;20120;-57
2021/11/12 11:17:46;;;;;;;2.83;1.08;;;;;;;;;;5018117;28;20037;-57
2021/11/12 11:20:18;;;;;;;2.53;0.90;;;;;;;;;;5019381;28;20049;-56
2021/11/12 11:22:50;;;;;;;2.53;0.80;;;;;;;;;;5018424;28;20040;-58
2021/11/12 11:25:15;;;;;;;3.78;0.80;;;;;;;;;;5019280;28;20545;-57
2021/11/12 11:27:45;;;;;;;2.70;0.80;;;;;;;;;;5018627;28;20037;-58
2021/11/12 11:30:12;;;;;;;2.47;0.80;;;;;;;;;;5019898;28;20424;-57
2021/11/12 11:32:38;;;;;;;3.55;0.95;;;;;;;;;;5019271;28;20049;-57
2021/11/12 11:35:05;;;;;;;2.88;1.02;;;;;;;;;;5018522;28;20093;-56
2021/11/12 11:37:32;;;;;;;2.65;1.10;;;;;;;;;;5017484;28;20037;-54
2021/11/12 11:39:59;;;;;;;3.60;1.08;;;;;;;;;;5019210;28;21030;-57
2021/11/12 11:42:25;;;;;;;3.60;0.85;;;;;;;;;;5019633;28;20494;-58
2021/11/12 11:44:51;;;;;;;2.28;0.88;;;;;;;;;;5006347;28;20037;-54
2021/11/12 11:47:20;;;;;;;2.42;0.90;;;;;;;;;;5034833;28;20037;-57
2021/11/12 11:49:50;;;;;;;2.03;0.75;;;;;;;;;;5046100;28;20041;-58
2021/11/12 11:52:24;;;;;;;2.75;0.90;;;;;;;;;;5046984;28;20127;-57
2021/11/12 11:54:49;;;;;;;5.55;0.88;;;;;;;;;;5047656;28;20041;-57
2021/11/12 11:57:17;;;;;;;3.22;1.00;;;;;;;;;;5044109;28;20041;-57
2021/11/12 11:59:44;;;;;;;2.63;0.90;;;;;;;;;;5045323;28;20045;-56
2021/11/12 12:02:11;;;;;;;2.65;0.88;;;;;;;;;;5048129;28;20040;-57
2021/11/12 12:04:37;;;;;;;1.85;0.70;;;;;;;;;;5049689;28;20048;-58
2021/11/12 12:07:03;;;;;;;3.80;1.27;;;;;;;;;;5049962;28;20052;-55
2021/11/12 12:09:51;;;;;;;2.50;0.82;;;;;;;;;;5051252;28;20716;-59
2021/11/12 12:12:34;;;;;;;2.88;0.90;;;;;;;;;;5050271;28;20507;-55
2021/11/12 12:15:03;;;;;;;3.65;0.82;;;;;;;;;;5050281;28;21920;-56
2021/11/12 12:17:29;;;;;;;2.78;0.90;;;;;;;;;;5046106;28;20500;-56
2021/11/12 12:20:01;;;;;;;3.00;0.90;;;;;;;;;;5050291;28;20044;-56
2021/11/12 12:32:19;;;;;;;3.00;0.95;;;;;;;;;;5048967;28;20060;-55
2021/11/12 13:24:04;;;;;;;2.45;0.90;;;;;;;;;;5046270;28;20119;-56
2021/11/12 13:26:30;;;;;;;3.30;1.10;;;;;;;;;;5046358;28;20073;-56
2021/11/12 13:28:57;;;;;;;2.97;1.10;;;;;;;;;;5047198;28;20036;-57
2021/11/12 13:31:23;;;;;;;4.13;1.00;;;;;;;;;;5046515;28;20572;-57
2021/11/12 13:33:53;;;;;;;2.60;1.00;;;;;;;;;;5046064;28;20095;-57
2021/11/12 13:36:21;;;;;;;3.47;1.10;;;;;;;;;;5045259;28;20071;-58
2021/11/12 13:38:47;;;;;;;3.13;1.10;;;;;;;;;;5045639;28;20047;-57
2021/11/12 13:41:14;;;;;;;3.10;1.23;;;;;;;;;;5043107;28;20056;-57
2021/11/12 13:43:41;;;;;;;4.75;1.23;;;;;;;;;;5045420;28;20045;-56
2021/11/12 13:46:08;;;;;;;3.13;1.17;;;;;;;;;;5047240;28;20041;-58
2021/11/12 13:48:49;;;;;;;3.92;1.45;;;;;;;;;;5046654;28;20501;-58
2021/11/12 13:51:17;;;;;;;3.20;1.00;;;;;;;;;;5047432;28;20108;-57
2021/11/12 13:53:46;;;;;;;8.48;1.20;;;;;;;;;;5046073;28;20037;-57
2021/11/12 13:56:12;;;;;;;7.03;1.00;;;;;;;;;;5047668;28;20056;-57
2021/11/12 13:58:40;;;;;;;3.42;1.17;;;;;;;;;;5045139;28;20778;-58
2021/11/12 14:01:26;;;;;;;6.68;3.50;;;;;;;;;;5048188;28;20484;-57
2021/11/12 14:03:54;;;;;;;4.65;1.48;;;;;;;;;;5038871;28;20040;-55
2021/11/12 14:06:20;;;;;;;4.28;1.38;;;;;;;;;;5024475;28;20612;-57
2021/11/12 14:08:49;;;;;;;5.68;1.60;;;;;;;;;;5020571;28;20061;-54
2021/11/12 14:11:25;;;;;;;3.42;1.30;;;;;;;;;;5021294;28;20041;-59
2021/11/12 14:13:56;;;;;;;4.30;1.48;;;;;;;;;;5027535;28;20099;-57
2021/11/12 14:16:30;;;;;;;9.40;1.40;;;;;;;;;;5025477;28;20037;-56
2021/11/12 14:21:34;;;;;;;4.88;1.30;;;;;;;;;;5028571;28;20084;-57
2021/11/12 14:24:25;;;;;;;4.53;1.20;;;;;;;;;;5025799;28;20033;-57
2021/11/12 14:32:33;;;;;;;4.30;1.45;;;;;;;;;;5045557;28;20033;-55
2021/11/12 14:45:46;;;;;;;5.72;1.42;;;;;;;;;;5019859;28;20052;-58
2021/11/12 14:48:33;;;;;;;3.63;1.42;;;;;;;;;;5019155;28;20037;-56
2021/11/12 14:51:07;;;;;;;5.97;1.80;;;;;;;;;;5018708;28;20536;-57
2021/11/12 14:58:31;;;;;;;7.03;2.50;;;;;;;;;;5018861;28;20034;-57
2021/11/12 15:01:01;;;;;;;5.88;1.58;;;;;;;;;;5019330;28;20049;-58
2021/11/12 15:03:28;;;;;;;8.30;1.75;;;;;;;;;;5019275;28;20041;-57
2021/11/12 15:05:53;;;;;;;3.58;1.52;;;;;;;;;;5018925;28;20555;-55
2021/11/12 15:08:22;;;;;;;4.63;1.67;;;;;;;;;;5019121;28;20037;-58
2021/11/12 15:10:49;;;;;;;4.13;1.58;;;;;;;;;;5019597;28;20126;-57
2021/11/12 15:13:16;;;;;;;5.72;1.88;;;;;;;;;;5018693;28;20418;-56
2021/11/12 15:15:42;;;;;;;14.75;2.00;;;;;;;;;;5019137;28;20106;-57
2021/11/12 15:18:08;;;;;;;8.35;1.60;;;;;;;;;;5020296;28;20505;-57
2021/11/12 15:20:36;;;;;;;5.65;1.63;;;;;;;;;;5018656;28;20202;-58
2021/11/12 15:31:18;;;;;;;5.10;1.90;;;;;;;;;;5044240;28;20036;-54
2021/11/12 15:33:49;;;;;;;5.60;1.65;;;;;;;;;;5043712;28;20519;-57
2021/11/12 15:36:16;;;;;;;14.40;2.10;;;;;;;;;;5046572;28;20611;-57
2021/11/12 15:38:51;;;;;;;3.13;1.48;;;;;;;;;;5045667;28;20040;-54
2021/11/12 15:44:10;;;;;;;8.20;1.80;;;;;;;;;;5026030;28;20056;-57
2021/11/12 15:46:41;;;;;;;4.05;1.60;;;;;;;;;;5023800;28;20132;-58
2021/11/12 15:49:07;;;;;;;4.13;1.88;;;;;;;;;;5029813;28;20084;-57
2021/11/12 15:51:41;;;;;;;4.40;2.05;;;;;;;;;;5018985;28;20047;-57
2021/11/12 15:57:11;;;;;;;4.53;1.98;;;;;;;;;;5043717;28;20058;-55
2021/11/12 16:10:49;;;;;;;5.38;1.65;;;;;;;;;;5044571;28;20033;-58
2021/11/12 16:15:15;;;;;;;3.92;1.50;;;;;;;;;;5044523;28;20389;-55
2021/11/12 16:17:48;;;;;;;4.20;1.25;;;;;;;;;;5043123;28;20087;-55
2021/11/12 16:25:28;;;;;;;6.20;1.90;;;;;;;;;;5045121;28;20166;-56
2021/11/12 16:27:59;;;;;;;4.35;1.50;;;;;;;;;;5045577;28;20650;-56
2021/11/12 16:30:28;;;;;;;7.65;1.67;;;;;;;;;;5043239;28;20048;-59
2021/11/12 16:32:55;;;;;;;3.55;1.40;;;;;;;;;;5044211;28;20041;-57
2021/11/12 16:35:24;;;;;;;5.07;1.73;;;;;;;;;;5043971;28;20039;-53
2021/11/12 16:37:53;;;;;;;3.30;1.20;;;;;;;;;;5042559;28;20037;-57
2021/11/12 16:40:26;;;;;;;5.13;1.48;;;;;;;;;;5044307;28;20120;-57
2021/11/12 16:51:05;;;;;;;4.30;1.52;;;;;;;;;;5029170;28;20043;-57
2021/11/12 17:04:38;;;;;;;7.88;2.03;;;;;;;;;;5019384;28;20053;-56
2021/11/12 17:15:15;;;;;;;3.30;1.50;;;;;;;;;;5047261;28;20036;-59
2021/11/12 17:18:01;;;;;;;5.28;1.80;;;;;;;;;;5046995;28;20044;-58
2021/11/12 17:45:00;;;;;;;5.88;1.80;;;;;;;;;;5045729;28;20074;-55
2021/11/12 17:47:28;;;;;;;7.43;1.98;;;;;;;;;;5046545;28;20039;-57
2021/11/12 18:03:32;;;;;;;6.80;2.05;;;;;;;;;;5046239;28;20056;-56
2021/11/12 18:06:05;;;;;;;4.70;2.15;;;;;;;;;;5045841;28;20048;-56
2021/11/12 18:25:39;;;;;;;6.53;2.55;;;;;;;;;;5020056;28;20140;-56
2021/11/12 21:47:19;;;;;;;5.72;0.70;;;;;;;;;;5048111;28;20631;-57
2021/11/12 21:49:45;;;;;;;5.07;0.43;;;;;;;;;;5048408;28;20184;-56
2021/11/12 21:52:11;;;;;;;10.07;0.60;;;;;;;;;;5047830;28;20040;-56
2021/11/12 21:54:37;;;;;;;3.60;0.50;;;;;;;;;;5045363;28;20085;-59
2021/11/12 21:57:03;;;;;;;8.95;1.10;;;;;;;;;;5046919;28;20033;-55
2021/11/12 21:59:29;;;;;;;6.38;0.57;;;;;;;;;;5028214;28;20436;-57
2021/11/12 22:01:56;;;;;;;3.20;0.50;;;;;;;;;;5047548;28;20089;-57
2021/11/12 22:04:22;;;;;;;0.80;0.28;;;;;;;;;;5045300;28;20520;-58
2021/11/12 22:06:48;;;;;;;1.13;0.35;;;;;;;;;;5045348;28;20120;-56
2021/11/12 22:09:14;;;;;;;1.23;0.47;;;;;;;;;;5045635;28;20185;-56
2021/11/12 22:11:40;;;;;;;0.43;0.28;;;;;;;;;;5044901;28;20075;-58
2021/11/12 22:14:06;;;;;;;0.65;0.30;;;;;;;;;;5046558;28;21164;-57
2021/11/12 22:16:32;;;;;;;0.30;0.25;;;;;;;;;;5046921;28;20650;-57
2021/11/12 22:18:58;;;;;;;1.42;0.45;;;;;;;;;;5047295;28;20041;-57
2021/11/12 22:21:25;;;;;;;0.73;0.30;;;;;;;;;;5047102;28;20802;-57
2021/11/12 22:23:50;;;;;;;0.68;0.30;;;;;;;;;;5047573;28;20117;-56
2021/11/12 22:26:17;;;;;;;0.50;0.20;;;;;;;;;;5045441;28;20123;-57
2021/11/12 22:28:43;;;;;;;0.57;0.30;;;;;;;;;;5026136;28;20041;-57
2021/11/12 22:31:09;;;;;;;1.25;0.30;;;;;;;;;;5028473;28;20040;-56
2021/11/12 22:33:35;;;;;;;1.42;0.38;;;;;;;;;;5027710;28;20041;-55
2021/11/12 22:36:01;;;;;;;1.50;0.40;;;;;;;;;;5031198;28;21091;-59
2021/11/12 22:38:27;;;;;;;0.73;0.30;;;;;;;;;;5041010;28;20036;-56
2021/11/12 22:40:53;;;;;;;5.78;0.40;;;;;;;;;;5026198;28;20059;-60
2021/11/12 22:43:22;;;;;;;1.40;0.30;;;;;;;;;;5025623;28;20557;-58
2021/11/12 22:45:48;;;;;;;5.38;0.63;;;;;;;;;;5031860;28;20081;-57
2021/11/12 22:48:14;;;;;;;1.60;0.50;;;;;;;;;;5025115;28;20080;-58
2021/11/12 22:50:43;;;;;;;0.88;0.40;;;;;;;;;;5025432;28;20144;-57
2021/11/12 22:53:09;;;;;;;1.77;0.50;;;;;;;;;;5041474;28;20037;-58
2021/11/12 22:55:35;;;;;;;1.42;0.50;;;;;;;;;;5017416;28;20044;-59
2021/11/12 22:58:02;;;;;;;0.82;0.40;;;;;;;;;;5034916;28;20483;-58
2021/11/12 23:00:33;;;;;;;1.10;0.40;;;;;;;;;;5043626;28;20067;-58
2021/11/12 23:03:00;;;;;;;0.57;0.30;;;;;;;;;;5024654;28;20041;-57
2021/11/12 23:05:26;;;;;;;2.63;0.50;;;;;;;;;;5043880;28;20055;-58
2021/11/12 23:07:52;;;;;;;1.27;0.30;;;;;;;;;;5032476;28;20025;-59
2021/11/12 23:10:18;;;;;;;7.72;0.73;;;;;;;;;;5043378;28;20063;-58
2021/11/12 23:12:45;;;;;;;1.27;0.40;;;;;;;;;;5046232;28;20063;-58
2021/11/12 23:15:11;;;;;;;8.13;0.55;;;;;;;;;;5033795;28;20493;-58
2021/11/12 23:17:37;;;;;;;4.15;0.60;;;;;;;;;;5044144;28;20044;-54
2021/11/12 23:20:04;;;;;;;1.58;0.47;;;;;;;;;;5045834;28;20049;-58
2021/11/12 23:22:30;;;;;;;6.13;0.50;;;;;;;;;;5045564;28;20045;-57
2021/11/12 23:24:56;;;;;;;1.73;0.40;;;;;;;;;;5044720;28;20066;-59
2021/11/12 23:27:25;;;;;;;0.75;0.40;;;;;;;;;;5044285;28;20033;-57
2021/11/12 23:29:51;;;;;;;1.20;0.38;;;;;;;;;;5044846;28;20065;-60
2021/11/12 23:32:17;;;;;;;1.02;0.40;;;;;;;;;;5026287;28;20123;-57
2021/11/12 23:34:43;;;;;;;2.00;0.50;;;;;;;;;;5044121;28;20040;-58
2021/11/12 23:37:12;;;;;;;2.53;0.50;;;;;;;;;;5045118;28;20057;-59
2021/11/12 23:39:40;;;;;;;1.35;0.40;;;;;;;;;;5043437;28;20584;-56
2021/11/12 23:42:07;;;;;;;3.45;0.50;;;;;;;;;;5045372;28;20393;-58
2021/11/12 23:44:33;;;;;;;3.05;0.50;;;;;;;;;;5042777;28;20036;-58
2021/11/12 23:46:59;;;;;;;2.15;0.40;;;;;;;;;;5044991;28;20036;-59
2021/11/12 23:49:24;;;;;;;4.93;2.33;;;;;;;;;;5044737;28;20041;-58
2021/11/12 23:51:50;;;;;;;3.72;1.35;;;;;;;;;;5042243;28;20039;-58
2021/11/12 23:54:16;;;;;;;2.28;0.63;;;;;;;;;;5044931;28;20407;-55
2021/11/12 23:56:42;;;;;;;2.65;0.65;;;;;;;;;;5042930;28;20601;-59
2021/11/12 23:59:08;;;;;;;2.75;0.50;;;;;;;;;;5044519;28;20049;-57
